sensor_id;sensor_type;location;lat;lon;timestamp;P1;durP1;ratioP1;P2;durP2;ratioP2
10882;SDS011;5494;51.796;10.952;2023-05-27T00:00:23;13.30;;;5.97;;
10882;SDS011;5494;51.796;10.952;2023-05-27T00:02:51;13.87;;;5.83;;
10882;SDS011;5494;51.796;10.952;2023-05-27T00:05:19;13.83;;;5.93;;
10882;SDS011;5494;51.796;10.952;2023-05-27T00:07:49;10.47;;;5.73;;
10882;SDS011;5494;51.796;10.952;2023-05-27T00:10:17;14.70;;;5.57;;
10882;SDS011;5494;51.796;10.952;2023-05-27T00:12:45;11.17;;;5.70;;
10882;SDS011;5494;51.796;10.952;2023-05-27T00:15:13;14.10;;;5.70;;
10882;SDS011;5494;51.796;10.952;2023-05-27T00:17:43;15.27;;;5.70;;
10882;SDS011;5494;51.796;10.952;2023-05-27T00:20:11;14.37;;;5.03;;
10882;SDS011;5494;51.796;10.952;2023-05-27T00:22:40;13.60;;;5.87;;
10882;SDS011;5494;51.796;10.952;2023-05-27T00:25:09;20.90;;;6.97;;
10882;SDS011;5494;51.796;10.952;2023-05-27T00:27:37;14.33;;;6.43;;
10882;SDS011;5494;51.796;10.952;2023-05-27T00:30:06;12.90;;;6.07;;
10882;SDS011;5494;51.796;10.952;2023-05-27T00:32:36;10.57;;;5.23;;
10882;SDS011;5494;51.796;10.952;2023-05-27T00:35:04;10.53;;;5.80;;
10882;SDS011;5494;51.796;10.952;2023-05-27T00:37:33;14.57;;;6.43;;
10882;SDS011;5494;51.796;10.952;2023-05-27T00:40:01;12.23;;;5.63;;
10882;SDS011;5494;51.796;10.952;2023-05-27T00:42:32;12.40;;;5.77;;
10882;SDS011;5494;51.796;10.952;2023-05-27T00:45:02;17.13;;;5.67;;
10882;SDS011;5494;51.796;10.952;2023-05-27T00:47:31;15.13;;;5.80;;
10882;SDS011;5494;51.796;10.952;2023-05-27T00:50:02;11.40;;;5.17;;
10882;SDS011;5494;51.796;10.952;2023-05-27T00:52:31;17.83;;;6.30;;
10882;SDS011;5494;51.796;10.952;2023-05-27T00:54:59;11.07;;;5.83;;
10882;SDS011;5494;51.796;10.952;2023-05-27T00:57:28;12.37;;;5.67;;
10882;SDS011;5494;51.796;10.952;2023-05-27T00:59:57;13.63;;;6.00;;
10882;SDS011;5494;51.796;10.952;2023-05-27T01:02:25;15.77;;;6.83;;
10882;SDS011;5494;51.796;10.952;2023-05-27T01:04:54;19.63;;;6.60;;
10882;SDS011;5494;51.796;10.952;2023-05-27T01:07:22;11.47;;;5.80;;
10882;SDS011;5494;51.796;10.952;2023-05-27T01:10:04;12.87;;;6.77;;
10882;SDS011;5494;51.796;10.952;2023-05-27T01:12:44;14.20;;;6.37;;
10882;SDS011;5494;51.796;10.952;2023-05-27T01:15:23;12.40;;;6.67;;
10882;SDS011;5494;51.796;10.952;2023-05-27T01:17:55;12.60;;;6.07;;
10882;SDS011;5494;51.796;10.952;2023-05-27T01:20:23;15.57;;;5.97;;
10882;SDS011;5494;51.796;10.952;2023-05-27T01:22:54;11.20;;;5.10;;
10882;SDS011;5494;51.796;10.952;2023-05-27T01:25:23;17.90;;;6.03;;
10882;SDS011;5494;51.796;10.952;2023-05-27T01:28:05;15.53;;;5.50;;
10882;SDS011;5494;51.796;10.952;2023-05-27T01:30:33;13.40;;;5.67;;
10882;SDS011;5494;51.796;10.952;2023-05-27T01:33:02;12.57;;;5.20;;
10882;SDS011;5494;51.796;10.952;2023-05-27T01:35:39;13.43;;;5.20;;
10882;SDS011;5494;51.796;10.952;2023-05-27T01:38:14;11.40;;;5.20;;
10882;SDS011;5494;51.796;10.952;2023-05-27T01:40:47;15.77;;;5.73;;
10882;SDS011;5494;51.796;10.952;2023-05-27T01:43:18;14.33;;;5.40;;
10882;SDS011;5494;51.796;10.952;2023-05-27T01:45:48;10.73;;;4.93;;
10882;SDS011;5494;51.796;10.952;2023-05-27T01:48:17;9.70;;;5.40;;
10882;SDS011;5494;51.796;10.952;2023-05-27T01:50:45;13.43;;;5.90;;
10882;SDS011;5494;51.796;10.952;2023-05-27T01:53:15;15.17;;;5.80;;
10882;SDS011;5494;51.796;10.952;2023-05-27T01:55:43;11.63;;;5.10;;
10882;SDS011;5494;51.796;10.952;2023-05-27T01:58:12;11.10;;;6.07;;
10882;SDS011;5494;51.796;10.952;2023-05-27T02:00:40;14.07;;;5.90;;
10882;SDS011;5494;51.796;10.952;2023-05-27T02:03:08;10.37;;;5.30;;
10882;SDS011;5494;51.796;10.952;2023-05-27T02:05:36;12.83;;;6.40;;
10882;SDS011;5494;51.796;10.952;2023-05-27T02:08:04;11.47;;;5.50;;
10882;SDS011;5494;51.796;10.952;2023-05-27T02:10:33;14.47;;;5.73;;
10882;SDS011;5494;51.796;10.952;2023-05-27T02:13:01;10.93;;;4.80;;
10882;SDS011;5494;51.796;10.952;2023-05-27T02:15:30;11.93;;;5.43;;
10882;SDS011;5494;51.796;10.952;2023-05-27T02:17:58;11.83;;;5.27;;
10882;SDS011;5494;51.796;10.952;2023-05-27T02:20:26;10.73;;;5.23;;
10882;SDS011;5494;51.796;10.952;2023-05-27T02:22:56;8.07;;;5.13;;
10882;SDS011;5494;51.796;10.952;2023-05-27T02:25:24;14.00;;;6.03;;
10882;SDS011;5494;51.796;10.952;2023-05-27T02:27:54;15.47;;;5.27;;
10882;SDS011;5494;51.796;10.952;2023-05-27T02:30:22;11.53;;;4.83;;
10882;SDS011;5494;51.796;10.952;2023-05-27T02:32:51;14.27;;;5.70;;
10882;SDS011;5494;51.796;10.952;2023-05-27T02:35:19;15.37;;;6.60;;
10882;SDS011;5494;51.796;10.952;2023-05-27T02:37:48;10.50;;;5.70;;
10882;SDS011;5494;51.796;10.952;2023-05-27T02:40:23;15.17;;;6.23;;
10882;SDS011;5494;51.796;10.952;2023-05-27T02:42:55;14.67;;;6.10;;
10882;SDS011;5494;51.796;10.952;2023-05-27T02:45:23;11.87;;;6.03;;
10882;SDS011;5494;51.796;10.952;2023-05-27T02:47:51;12.40;;;5.90;;
10882;SDS011;5494;51.796;10.952;2023-05-27T02:50:21;13.13;;;5.10;;
10882;SDS011;5494;51.796;10.952;2023-05-27T02:52:49;14.17;;;6.00;;
10882;SDS011;5494;51.796;10.952;2023-05-27T02:55:17;17.10;;;5.83;;
10882;SDS011;5494;51.796;10.952;2023-05-27T02:57:45;13.20;;;5.40;;
10882;SDS011;5494;51.796;10.952;2023-05-27T03:00:15;13.00;;;5.47;;
10882;SDS011;5494;51.796;10.952;2023-05-27T03:02:44;14.00;;;5.33;;
10882;SDS011;5494;51.796;10.952;2023-05-27T03:05:16;11.63;;;5.23;;
10882;SDS011;5494;51.796;10.952;2023-05-27T03:07:44;11.87;;;5.60;;
10882;SDS011;5494;51.796;10.952;2023-05-27T03:10:13;17.47;;;5.40;;
10882;SDS011;5494;51.796;10.952;2023-05-27T03:12:41;13.23;;;5.10;;
10882;SDS011;5494;51.796;10.952;2023-05-27T03:15:09;13.30;;;5.90;;
10882;SDS011;5494;51.796;10.952;2023-05-27T03:17:38;11.10;;;5.07;;
10882;SDS011;5494;51.796;10.952;2023-05-27T03:20:09;14.93;;;5.87;;
10882;SDS011;5494;51.796;10.952;2023-05-27T03:22:38;12.73;;;5.57;;
10882;SDS011;5494;51.796;10.952;2023-05-27T03:25:09;14.40;;;5.53;;
10882;SDS011;5494;51.796;10.952;2023-05-27T03:27:39;11.50;;;5.50;;
10882;SDS011;5494;51.796;10.952;2023-05-27T03:30:11;12.47;;;6.10;;
10882;SDS011;5494;51.796;10.952;2023-05-27T03:32:46;11.70;;;5.70;;
10882;SDS011;5494;51.796;10.952;2023-05-27T03:35:18;13.10;;;5.60;;
10882;SDS011;5494;51.796;10.952;2023-05-27T03:37:46;13.07;;;5.47;;
10882;SDS011;5494;51.796;10.952;2023-05-27T03:40:14;13.40;;;5.53;;
10882;SDS011;5494;51.796;10.952;2023-05-27T03:42:43;12.17;;;5.63;;
10882;SDS011;5494;51.796;10.952;2023-05-27T03:45:16;12.17;;;5.40;;
10882;SDS011;5494;51.796;10.952;2023-05-27T03:47:45;14.10;;;5.47;;
10882;SDS011;5494;51.796;10.952;2023-05-27T03:50:15;15.93;;;5.33;;
10882;SDS011;5494;51.796;10.952;2023-05-27T03:52:45;11.50;;;5.50;;
10882;SDS011;5494;51.796;10.952;2023-05-27T03:55:13;13.20;;;5.83;;
10882;SDS011;5494;51.796;10.952;2023-05-27T03:57:43;12.50;;;5.57;;
10882;SDS011;5494;51.796;10.952;2023-05-27T04:00:11;11.97;;;5.00;;
10882;SDS011;5494;51.796;10.952;2023-05-27T04:02:51;14.07;;;5.17;;
10882;SDS011;5494;51.796;10.952;2023-05-27T04:05:20;14.77;;;5.87;;
10882;SDS011;5494;51.796;10.952;2023-05-27T04:07:48;14.53;;;5.40;;
10882;SDS011;5494;51.796;10.952;2023-05-27T04:10:18;12.63;;;5.87;;
10882;SDS011;5494;51.796;10.952;2023-05-27T04:12:46;14.27;;;5.00;;
10882;SDS011;5494;51.796;10.952;2023-05-27T04:15:14;9.97;;;4.87;;
10882;SDS011;5494;51.796;10.952;2023-05-27T04:17:42;8.83;;;4.60;;
10882;SDS011;5494;51.796;10.952;2023-05-27T04:20:12;8.60;;;4.73;;
10882;SDS011;5494;51.796;10.952;2023-05-27T04:22:48;12.47;;;5.40;;
10882;SDS011;5494;51.796;10.952;2023-05-27T04:25:16;13.37;;;6.23;;
10882;SDS011;5494;51.796;10.952;2023-05-27T04:27:58;11.27;;;5.50;;
10882;SDS011;5494;51.796;10.952;2023-05-27T04:30:28;11.50;;;5.83;;
10882;SDS011;5494;51.796;10.952;2023-05-27T04:32:57;13.10;;;7.40;;
10882;SDS011;5494;51.796;10.952;2023-05-27T04:35:27;15.53;;;7.77;;
10882;SDS011;5494;51.796;10.952;2023-05-27T04:37:57;14.07;;;7.47;;
10882;SDS011;5494;51.796;10.952;2023-05-27T04:40:34;18.20;;;8.83;;
10882;SDS011;5494;51.796;10.952;2023-05-27T04:43:21;19.63;;;8.73;;
10882;SDS011;5494;51.796;10.952;2023-05-27T04:45:49;20.07;;;8.30;;
10882;SDS011;5494;51.796;10.952;2023-05-27T04:48:18;15.47;;;7.50;;
10882;SDS011;5494;51.796;10.952;2023-05-27T04:50:51;11.33;;;5.10;;
10882;SDS011;5494;51.796;10.952;2023-05-27T04:53:20;8.67;;;5.33;;
10882;SDS011;5494;51.796;10.952;2023-05-27T04:55:49;12.33;;;5.27;;
10882;SDS011;5494;51.796;10.952;2023-05-27T04:58:20;8.80;;;4.80;;
10882;SDS011;5494;51.796;10.952;2023-05-27T05:00:49;9.47;;;5.10;;
10882;SDS011;5494;51.796;10.952;2023-05-27T05:03:20;10.70;;;4.57;;
10882;SDS011;5494;51.796;10.952;2023-05-27T05:05:49;12.53;;;4.90;;
10882;SDS011;5494;51.796;10.952;2023-05-27T05:08:20;9.40;;;4.70;;
10882;SDS011;5494;51.796;10.952;2023-05-27T05:10:50;8.90;;;4.60;;
10882;SDS011;5494;51.796;10.952;2023-05-27T05:13:19;14.27;;;5.27;;
10882;SDS011;5494;51.796;10.952;2023-05-27T05:15:47;9.63;;;4.60;;
10882;SDS011;5494;51.796;10.952;2023-05-27T05:18:16;10.50;;;4.53;;
10882;SDS011;5494;51.796;10.952;2023-05-27T05:20:44;12.67;;;4.67;;
10882;SDS011;5494;51.796;10.952;2023-05-27T05:23:18;12.10;;;4.83;;
10882;SDS011;5494;51.796;10.952;2023-05-27T05:25:47;13.07;;;4.77;;
10882;SDS011;5494;51.796;10.952;2023-05-27T05:28:25;11.87;;;5.50;;
10882;SDS011;5494;51.796;10.952;2023-05-27T05:30:53;9.43;;;4.60;;
10882;SDS011;5494;51.796;10.952;2023-05-27T05:33:21;10.83;;;4.63;;
10882;SDS011;5494;51.796;10.952;2023-05-27T05:35:49;9.73;;;4.37;;
10882;SDS011;5494;51.796;10.952;2023-05-27T05:38:24;11.60;;;4.70;;
10882;SDS011;5494;51.796;10.952;2023-05-27T05:40:52;11.03;;;5.33;;
10882;SDS011;5494;51.796;10.952;2023-05-27T05:43:22;10.43;;;4.60;;
10882;SDS011;5494;51.796;10.952;2023-05-27T05:45:50;7.67;;;3.97;;
10882;SDS011;5494;51.796;10.952;2023-05-27T05:48:20;9.33;;;4.17;;
10882;SDS011;5494;51.796;10.952;2023-05-27T05:50:48;9.17;;;4.10;;
10882;SDS011;5494;51.796;10.952;2023-05-27T05:53:17;9.53;;;4.20;;
10882;SDS011;5494;51.796;10.952;2023-05-27T05:55:48;9.07;;;4.17;;
10882;SDS011;5494;51.796;10.952;2023-05-27T05:58:18;8.97;;;4.53;;
10882;SDS011;5494;51.796;10.952;2023-05-27T06:00:49;7.70;;;4.20;;
10882;SDS011;5494;51.796;10.952;2023-05-27T06:03:32;8.03;;;3.83;;
10882;SDS011;5494;51.796;10.952;2023-05-27T06:06:01;10.47;;;4.50;;
10882;SDS011;5494;51.796;10.952;2023-05-27T06:08:32;9.80;;;4.37;;
10882;SDS011;5494;51.796;10.952;2023-05-27T06:11:08;9.30;;;4.27;;
10882;SDS011;5494;51.796;10.952;2023-05-27T06:13:38;10.13;;;4.13;;
10882;SDS011;5494;51.796;10.952;2023-05-27T06:16:08;10.63;;;3.70;;
10882;SDS011;5494;51.796;10.952;2023-05-27T06:18:37;8.60;;;4.13;;
10882;SDS011;5494;51.796;10.952;2023-05-27T06:21:05;10.30;;;3.87;;
10882;SDS011;5494;51.796;10.952;2023-05-27T06:23:53;8.83;;;3.73;;
10882;SDS011;5494;51.796;10.952;2023-05-27T06:26:24;9.47;;;3.50;;
10882;SDS011;5494;51.796;10.952;2023-05-27T06:28:56;10.47;;;4.40;;
10882;SDS011;5494;51.796;10.952;2023-05-27T06:31:26;10.20;;;4.37;;
10882;SDS011;5494;51.796;10.952;2023-05-27T06:33:54;9.33;;;3.80;;
10882;SDS011;5494;51.796;10.952;2023-05-27T06:36:22;13.50;;;4.33;;
10882;SDS011;5494;51.796;10.952;2023-05-27T06:38:50;8.67;;;3.93;;
10882;SDS011;5494;51.796;10.952;2023-05-27T06:41:19;11.47;;;4.30;;
10882;SDS011;5494;51.796;10.952;2023-05-27T06:44:07;10.43;;;4.23;;
10882;SDS011;5494;51.796;10.952;2023-05-27T06:46:48;10.43;;;4.40;;
10882;SDS011;5494;51.796;10.952;2023-05-27T06:49:27;10.97;;;4.07;;
10882;SDS011;5494;51.796;10.952;2023-05-27T06:51:56;8.70;;;4.13;;
10882;SDS011;5494;51.796;10.952;2023-05-27T06:54:26;13.53;;;4.33;;
10882;SDS011;5494;51.796;10.952;2023-05-27T06:57:09;9.07;;;3.73;;
10882;SDS011;5494;51.796;10.952;2023-05-27T07:00:04;12.83;;;4.60;;
10882;SDS011;5494;51.796;10.952;2023-05-27T07:02:43;13.13;;;4.53;;
10882;SDS011;5494;51.796;10.952;2023-05-27T07:05:11;9.33;;;4.10;;
10882;SDS011;5494;51.796;10.952;2023-05-27T07:07:39;18.00;;;5.20;;
10882;SDS011;5494;51.796;10.952;2023-05-27T07:10:07;10.97;;;4.63;;
10882;SDS011;5494;51.796;10.952;2023-05-27T07:12:35;11.90;;;4.83;;
10882;SDS011;5494;51.796;10.952;2023-05-27T07:15:26;8.80;;;4.63;;
10882;SDS011;5494;51.796;10.952;2023-05-27T07:17:54;6.33;;;3.80;;
10882;SDS011;5494;51.796;10.952;2023-05-27T07:20:22;9.70;;;4.17;;
10882;SDS011;5494;51.796;10.952;2023-05-27T07:22:51;7.60;;;4.23;;
10882;SDS011;5494;51.796;10.952;2023-05-27T07:25:19;11.80;;;4.17;;
10882;SDS011;5494;51.796;10.952;2023-05-27T07:27:47;10.70;;;4.37;;
10882;SDS011;5494;51.796;10.952;2023-05-27T07:30:15;11.50;;;4.73;;
10882;SDS011;5494;51.796;10.952;2023-05-27T07:32:51;10.43;;;4.50;;
10882;SDS011;5494;51.796;10.952;2023-05-27T07:35:20;10.40;;;3.90;;
10882;SDS011;5494;51.796;10.952;2023-05-27T07:37:48;10.77;;;4.20;;
10882;SDS011;5494;51.796;10.952;2023-05-27T07:40:16;11.87;;;4.43;;
10882;SDS011;5494;51.796;10.952;2023-05-27T07:42:45;14.13;;;4.83;;
10882;SDS011;5494;51.796;10.952;2023-05-27T07:45:13;13.83;;;3.50;;
10882;SDS011;5494;51.796;10.952;2023-05-27T07:47:41;7.20;;;3.43;;
10882;SDS011;5494;51.796;10.952;2023-05-27T07:50:11;17.97;;;4.20;;
10882;SDS011;5494;51.796;10.952;2023-05-27T07:52:42;10.50;;;3.73;;
10882;SDS011;5494;51.796;10.952;2023-05-27T07:55:22;8.17;;;3.10;;
10882;SDS011;5494;51.796;10.952;2023-05-27T07:57:52;11.03;;;3.87;;
10882;SDS011;5494;51.796;10.952;2023-05-27T08:00:23;9.70;;;3.90;;
10882;SDS011;5494;51.796;10.952;2023-05-27T08:02:52;8.37;;;3.47;;
10882;SDS011;5494;51.796;10.952;2023-05-27T08:05:37;11.93;;;3.50;;
10882;SDS011;5494;51.796;10.952;2023-05-27T08:08:15;8.20;;;3.57;;
10882;SDS011;5494;51.796;10.952;2023-05-27T08:11:06;10.17;;;3.77;;
10882;SDS011;5494;51.796;10.952;2023-05-27T08:13:48;12.93;;;4.20;;
10882;SDS011;5494;51.796;10.952;2023-05-27T08:16:32;12.33;;;3.67;;
10882;SDS011;5494;51.796;10.952;2023-05-27T08:19:13;15.43;;;3.87;;
10882;SDS011;5494;51.796;10.952;2023-05-27T08:21:52;11.30;;;4.00;;
10882;SDS011;5494;51.796;10.952;2023-05-27T08:24:41;14.40;;;4.63;;
10882;SDS011;5494;51.796;10.952;2023-05-27T08:27:43;11.20;;;3.97;;
10882;SDS011;5494;51.796;10.952;2023-05-27T08:30:28;7.80;;;3.90;;
10882;SDS011;5494;51.796;10.952;2023-05-27T08:33:05;17.37;;;4.17;;
10882;SDS011;5494;51.796;10.952;2023-05-27T08:35:33;15.17;;;3.93;;
10882;SDS011;5494;51.796;10.952;2023-05-27T08:38:04;13.63;;;3.70;;
10882;SDS011;5494;51.796;10.952;2023-05-27T08:40:37;12.70;;;3.70;;
10882;SDS011;5494;51.796;10.952;2023-05-27T08:43:06;11.37;;;3.70;;
10882;SDS011;5494;51.796;10.952;2023-05-27T08:45:38;10.70;;;3.87;;
10882;SDS011;5494;51.796;10.952;2023-05-27T08:48:09;11.30;;;3.70;;
10882;SDS011;5494;51.796;10.952;2023-05-27T08:50:39;12.27;;;2.90;;
10882;SDS011;5494;51.796;10.952;2023-05-27T08:53:09;9.87;;;4.00;;
10882;SDS011;5494;51.796;10.952;2023-05-27T08:55:39;10.67;;;3.87;;
10882;SDS011;5494;51.796;10.952;2023-05-27T08:58:10;9.20;;;3.40;;
10882;SDS011;5494;51.796;10.952;2023-05-27T09:00:44;10.90;;;4.13;;
10882;SDS011;5494;51.796;10.952;2023-05-27T09:03:17;14.43;;;4.47;;
10882;SDS011;5494;51.796;10.952;2023-05-27T09:05:45;7.63;;;3.60;;
10882;SDS011;5494;51.796;10.952;2023-05-27T09:08:15;10.40;;;3.53;;
10882;SDS011;5494;51.796;10.952;2023-05-27T09:10:43;11.70;;;3.97;;
10882;SDS011;5494;51.796;10.952;2023-05-27T09:13:11;10.33;;;3.40;;
10882;SDS011;5494;51.796;10.952;2023-05-27T09:15:40;10.27;;;3.50;;
10882;SDS011;5494;51.796;10.952;2023-05-27T09:18:08;16.30;;;4.27;;
10882;SDS011;5494;51.796;10.952;2023-05-27T09:20:39;13.53;;;4.13;;
10882;SDS011;5494;51.796;10.952;2023-05-27T09:23:10;10.43;;;4.40;;
10882;SDS011;5494;51.796;10.952;2023-05-27T09:25:40;11.10;;;3.53;;
10882;SDS011;5494;51.796;10.952;2023-05-27T09:28:09;9.57;;;3.97;;
10882;SDS011;5494;51.796;10.952;2023-05-27T09:30:38;7.30;;;3.40;;
10882;SDS011;5494;51.796;10.952;2023-05-27T09:33:06;8.13;;;3.73;;
10882;SDS011;5494;51.796;10.952;2023-05-27T09:35:37;11.60;;;4.10;;
10882;SDS011;5494;51.796;10.952;2023-05-27T09:38:06;8.80;;;3.70;;
10882;SDS011;5494;51.796;10.952;2023-05-27T09:40:35;18.97;;;4.47;;
10882;SDS011;5494;51.796;10.952;2023-05-27T09:43:05;18.93;;;4.30;;
10882;SDS011;5494;51.796;10.952;2023-05-27T09:45:34;9.27;;;3.90;;
10882;SDS011;5494;51.796;10.952;2023-05-27T09:48:03;7.10;;;3.53;;
10882;SDS011;5494;51.796;10.952;2023-05-27T09:50:33;9.93;;;3.97;;
10882;SDS011;5494;51.796;10.952;2023-05-27T09:53:02;9.57;;;3.70;;
10882;SDS011;5494;51.796;10.952;2023-05-27T09:55:37;12.43;;;3.93;;
10882;SDS011;5494;51.796;10.952;2023-05-27T09:58:09;27.00;;;5.13;;
10882;SDS011;5494;51.796;10.952;2023-05-27T10:00:39;11.77;;;3.60;;
10882;SDS011;5494;51.796;10.952;2023-05-27T10:03:09;9.47;;;3.20;;
10882;SDS011;5494;51.796;10.952;2023-05-27T10:05:38;9.10;;;3.30;;
10882;SDS011;5494;51.796;10.952;2023-05-27T10:08:07;9.00;;;3.23;;
10882;SDS011;5494;51.796;10.952;2023-05-27T10:10:50;10.00;;;4.50;;
10882;SDS011;5494;51.796;10.952;2023-05-27T10:13:20;11.63;;;3.57;;
10882;SDS011;5494;51.796;10.952;2023-05-27T10:15:52;7.53;;;3.37;;
10882;SDS011;5494;51.796;10.952;2023-05-27T10:18:23;10.00;;;3.53;;
10882;SDS011;5494;51.796;10.952;2023-05-27T10:20:56;8.17;;;3.50;;
10882;SDS011;5494;51.796;10.952;2023-05-27T10:23:28;8.80;;;4.10;;
10882;SDS011;5494;51.796;10.952;2023-05-27T10:26:00;9.57;;;3.30;;
10882;SDS011;5494;51.796;10.952;2023-05-27T10:28:35;22.20;;;4.03;;
10882;SDS011;5494;51.796;10.952;2023-05-27T10:31:07;13.07;;;3.17;;
10882;SDS011;5494;51.796;10.952;2023-05-27T10:33:37;7.20;;;3.27;;
10882;SDS011;5494;51.796;10.952;2023-05-27T10:36:09;9.17;;;3.63;;
10882;SDS011;5494;51.796;10.952;2023-05-27T10:38:40;7.60;;;3.10;;
10882;SDS011;5494;51.796;10.952;2023-05-27T10:41:10;7.80;;;3.40;;
10882;SDS011;5494;51.796;10.952;2023-05-27T10:43:39;8.67;;;3.00;;
10882;SDS011;5494;51.796;10.952;2023-05-27T10:46:09;11.43;;;3.93;;
10882;SDS011;5494;51.796;10.952;2023-05-27T10:48:40;10.07;;;3.87;;
10882;SDS011;5494;51.796;10.952;2023-05-27T10:51:08;8.97;;;3.47;;
10882;SDS011;5494;51.796;10.952;2023-05-27T10:53:36;13.10;;;4.00;;
10882;SDS011;5494;51.796;10.952;2023-05-27T10:56:05;14.40;;;3.93;;
10882;SDS011;5494;51.796;10.952;2023-05-27T10:58:36;9.40;;;3.50;;
10882;SDS011;5494;51.796;10.952;2023-05-27T11:01:10;10.37;;;3.40;;
10882;SDS011;5494;51.796;10.952;2023-05-27T11:03:41;11.37;;;3.93;;
10882;SDS011;5494;51.796;10.952;2023-05-27T11:06:12;9.77;;;3.90;;
10882;SDS011;5494;51.796;10.952;2023-05-27T11:08:42;8.20;;;3.70;;
10882;SDS011;5494;51.796;10.952;2023-05-27T11:11:11;10.13;;;3.70;;
10882;SDS011;5494;51.796;10.952;2023-05-27T11:13:41;6.67;;;3.67;;
10882;SDS011;5494;51.796;10.952;2023-05-27T11:16:15;7.93;;;3.00;;
10882;SDS011;5494;51.796;10.952;2023-05-27T11:18:44;8.87;;;3.90;;
10882;SDS011;5494;51.796;10.952;2023-05-27T11:21:14;14.00;;;5.07;;
10882;SDS011;5494;51.796;10.952;2023-05-27T11:23:45;21.37;;;5.27;;
10882;SDS011;5494;51.796;10.952;2023-05-27T11:26:15;9.03;;;3.80;;
10882;SDS011;5494;51.796;10.952;2023-05-27T11:28:49;6.03;;;3.37;;
10882;SDS011;5494;51.796;10.952;2023-05-27T11:31:23;8.17;;;3.97;;
10882;SDS011;5494;51.796;10.952;2023-05-27T11:33:57;7.77;;;3.30;;
10882;SDS011;5494;51.796;10.952;2023-05-27T11:36:26;11.23;;;4.10;;
10882;SDS011;5494;51.796;10.952;2023-05-27T11:38:57;12.17;;;3.97;;
10882;SDS011;5494;51.796;10.952;2023-05-27T11:41:27;8.83;;;4.07;;
10882;SDS011;5494;51.796;10.952;2023-05-27T11:43:57;8.03;;;3.23;;
10882;SDS011;5494;51.796;10.952;2023-05-27T11:46:35;8.97;;;4.03;;
10882;SDS011;5494;51.796;10.952;2023-05-27T11:49:04;10.13;;;4.10;;
10882;SDS011;5494;51.796;10.952;2023-05-27T11:51:36;7.43;;;3.80;;
10882;SDS011;5494;51.796;10.952;2023-05-27T11:54:16;12.93;;;3.83;;
10882;SDS011;5494;51.796;10.952;2023-05-27T11:56:47;18.10;;;4.17;;
10882;SDS011;5494;51.796;10.952;2023-05-27T11:59:16;9.07;;;3.37;;
10882;SDS011;5494;51.796;10.952;2023-05-27T12:01:46;12.27;;;4.27;;
10882;SDS011;5494;51.796;10.952;2023-05-27T12:04:15;6.83;;;3.33;;
10882;SDS011;5494;51.796;10.952;2023-05-27T12:06:44;9.33;;;3.77;;
10882;SDS011;5494;51.796;10.952;2023-05-27T12:09:14;10.63;;;4.07;;
10882;SDS011;5494;51.796;10.952;2023-05-27T12:11:42;13.53;;;3.80;;
10882;SDS011;5494;51.796;10.952;2023-05-27T12:14:11;12.03;;;3.53;;
10882;SDS011;5494;51.796;10.952;2023-05-27T12:16:39;9.27;;;3.53;;
10882;SDS011;5494;51.796;10.952;2023-05-27T12:19:11;8.83;;;3.83;;
10882;SDS011;5494;51.796;10.952;2023-05-27T12:21:39;15.93;;;3.60;;
10882;SDS011;5494;51.796;10.952;2023-05-27T12:24:07;9.63;;;3.80;;
10882;SDS011;5494;51.796;10.952;2023-05-27T12:26:35;12.63;;;3.90;;
10882;SDS011;5494;51.796;10.952;2023-05-27T12:29:07;7.83;;;3.87;;
10882;SDS011;5494;51.796;10.952;2023-05-27T12:31:35;10.30;;;3.50;;
10882;SDS011;5494;51.796;10.952;2023-05-27T12:34:03;9.63;;;4.30;;
10882;SDS011;5494;51.796;10.952;2023-05-27T12:36:32;8.40;;;3.70;;
10882;SDS011;5494;51.796;10.952;2023-05-27T12:39:00;9.83;;;4.00;;
10882;SDS011;5494;51.796;10.952;2023-05-27T12:41:28;7.77;;;4.17;;
10882;SDS011;5494;51.796;10.952;2023-05-27T12:43:56;9.33;;;3.70;;
10882;SDS011;5494;51.796;10.952;2023-05-27T12:46:25;19.30;;;5.00;;
10882;SDS011;5494;51.796;10.952;2023-05-27T12:48:53;8.13;;;4.00;;
10882;SDS011;5494;51.796;10.952;2023-05-27T12:51:22;18.23;;;4.37;;
10882;SDS011;5494;51.796;10.952;2023-05-27T12:53:51;7.90;;;3.97;;
10882;SDS011;5494;51.796;10.952;2023-05-27T12:56:19;21.23;;;4.57;;
10882;SDS011;5494;51.796;10.952;2023-05-27T12:58:48;9.57;;;4.17;;
10882;SDS011;5494;51.796;10.952;2023-05-27T13:01:16;16.47;;;4.47;;
10882;SDS011;5494;51.796;10.952;2023-05-27T13:03:44;10.43;;;3.83;;
10882;SDS011;5494;51.796;10.952;2023-05-27T13:06:12;13.50;;;4.10;;
10882;SDS011;5494;51.796;10.952;2023-05-27T13:08:40;9.57;;;4.13;;
10882;SDS011;5494;51.796;10.952;2023-05-27T13:11:10;8.33;;;3.73;;
10882;SDS011;5494;51.796;10.952;2023-05-27T13:13:38;10.97;;;3.97;;
10882;SDS011;5494;51.796;10.952;2023-05-27T13:16:06;11.70;;;3.63;;
10882;SDS011;5494;51.796;10.952;2023-05-27T13:18:34;9.33;;;4.23;;
10882;SDS011;5494;51.796;10.952;2023-05-27T13:21:03;9.97;;;3.80;;
10882;SDS011;5494;51.796;10.952;2023-05-27T13:23:32;8.13;;;4.20;;
10882;SDS011;5494;51.796;10.952;2023-05-27T13:26:01;10.03;;;3.90;;
10882;SDS011;5494;51.796;10.952;2023-05-27T13:28:30;9.70;;;4.33;;
10882;SDS011;5494;51.796;10.952;2023-05-27T13:30:59;9.17;;;4.20;;
10882;SDS011;5494;51.796;10.952;2023-05-27T13:33:27;10.93;;;4.10;;
10882;SDS011;5494;51.796;10.952;2023-05-27T13:35:55;10.67;;;4.53;;
10882;SDS011;5494;51.796;10.952;2023-05-27T13:38:23;10.13;;;4.17;;
10882;SDS011;5494;51.796;10.952;2023-05-27T13:40:51;6.80;;;3.80;;
10882;SDS011;5494;51.796;10.952;2023-05-27T13:43:19;9.63;;;4.20;;
10882;SDS011;5494;51.796;10.952;2023-05-27T13:45:48;9.70;;;4.47;;
10882;SDS011;5494;51.796;10.952;2023-05-27T13:48:17;9.57;;;5.20;;
10882;SDS011;5494;51.796;10.952;2023-05-27T13:50:46;8.00;;;3.93;;
10882;SDS011;5494;51.796;10.952;2023-05-27T13:53:15;8.33;;;4.20;;
10882;SDS011;5494;51.796;10.952;2023-05-27T13:55:43;9.57;;;4.03;;
10882;SDS011;5494;51.796;10.952;2023-05-27T13:58:12;12.77;;;4.23;;
10882;SDS011;5494;51.796;10.952;2023-05-27T14:00:40;10.13;;;4.03;;
10882;SDS011;5494;51.796;10.952;2023-05-27T14:03:11;16.53;;;4.70;;
10882;SDS011;5494;51.796;10.952;2023-05-27T14:05:39;19.10;;;5.10;;
10882;SDS011;5494;51.796;10.952;2023-05-27T14:08:07;7.97;;;4.20;;
10882;SDS011;5494;51.796;10.952;2023-05-27T14:10:35;13.30;;;4.70;;
10882;SDS011;5494;51.796;10.952;2023-05-27T14:13:03;11.90;;;4.23;;
10882;SDS011;5494;51.796;10.952;2023-05-27T14:15:32;12.83;;;4.57;;
10882;SDS011;5494;51.796;10.952;2023-05-27T14:18:00;9.03;;;4.10;;
10882;SDS011;5494;51.796;10.952;2023-05-27T14:20:32;8.30;;;4.03;;
10882;SDS011;5494;51.796;10.952;2023-05-27T14:23:02;19.43;;;5.17;;
10882;SDS011;5494;51.796;10.952;2023-05-27T14:25:31;43.47;;;6.77;;
10882;SDS011;5494;51.796;10.952;2023-05-27T14:27:59;14.40;;;4.10;;
10882;SDS011;5494;51.796;10.952;2023-05-27T14:30:30;10.20;;;3.93;;
10882;SDS011;5494;51.796;10.952;2023-05-27T14:33:02;9.43;;;3.83;;
10882;SDS011;5494;51.796;10.952;2023-05-27T14:35:35;17.97;;;4.60;;
10882;SDS011;5494;51.796;10.952;2023-05-27T14:38:03;8.57;;;3.73;;
10882;SDS011;5494;51.796;10.952;2023-05-27T14:40:33;15.87;;;4.30;;
10882;SDS011;5494;51.796;10.952;2023-05-27T14:43:01;8.17;;;4.17;;
10882;SDS011;5494;51.796;10.952;2023-05-27T14:45:29;8.10;;;3.80;;
10882;SDS011;5494;51.796;10.952;2023-05-27T14:47:59;7.70;;;4.10;;
10882;SDS011;5494;51.796;10.952;2023-05-27T14:50:27;9.03;;;4.00;;
10882;SDS011;5494;51.796;10.952;2023-05-27T14:52:57;35.37;;;4.83;;
10882;SDS011;5494;51.796;10.952;2023-05-27T14:55:25;10.87;;;4.00;;
10882;SDS011;5494;51.796;10.952;2023-05-27T14:57:53;10.00;;;4.07;;